sensor_id;sensor_type;location;lat;lon;timestamp;pressure;altitude;pressure_sealevel;temperature;humidity
12624;BME280;6377;42.836;23.998;2024-03-07T00:00:59;95462.50;;;8.63;100.00
12624;BME280;6377;42.836;23.998;2024-03-07T00:03:29;95462.28;;;8.73;100.00
12624;BME280;6377;42.836;23.998;2024-03-07T00:05:56;95449.94;;;8.73;100.00
12624;BME280;6377;42.836;23.998;2024-03-07T00:08:23;95453.00;;;8.85;100.00
12624;BME280;6377;42.836;23.998;2024-03-07T00:10:51;95454.97;;;8.91;100.00
12624;BME280;6377;42.836;23.998;2024-03-07T00:13:19;95452.19;;;8.84;100.00
12624;BME280;6377;42.836;23.998;2024-03-07T00:15:47;95453.34;;;8.82;100.00
12624;BME280;6377;42.836;23.998;2024-03-07T00:18:14;95299.53;;;8.05;100.00
12624;BME280;6377;42.836;23.998;2024-03-07T00:20:42;95439.44;;;8.96;100.00
12624;BME280;6377;42.836;23.998;2024-03-07T00:23:09;95446.47;;;9.04;100.00
12624;BME280;6377;42.836;23.998;2024-03-07T00:25:36;95447.31;;;9.04;100.00
12624;BME280;6377;42.836;23.998;2024-03-07T00:28:04;95440.53;;;9.01;100.00
12624;BME280;6377;42.836;23.998;2024-03-07T00:30:33;95437.06;;;8.78;100.00
12624;BME280;6377;42.836;23.998;2024-03-07T00:33:01;95409.00;;;8.55;100.00
12624;BME280;6377;42.836;23.998;2024-03-07T00:35:28;95434.16;;;8.65;100.00
12624;BME280;6377;42.836;23.998;2024-03-07T00:37:56;95427.69;;;8.37;100.00
12624;BME280;6377;42.836;23.998;2024-03-07T00:40:23;95435.56;;;8.45;100.00
12624;BME280;6377;42.836;23.998;2024-03-07T00:42:50;95429.00;;;8.41;100.00
12624;BME280;6377;42.836;23.998;2024-03-07T00:45:18;95427.69;;;8.45;100.00
12624;BME280;6377;42.836;23.998;2024-03-07T00:47:47;95420.06;;;8.50;100.00
12624;BME280;6377;42.836;23.998;2024-03-07T00:50:14;95421.38;;;8.54;100.00
12624;BME280;6377;42.836;23.998;2024-03-07T00:52:41;95419.91;;;8.43;100.00
12624;BME280;6377;42.836;23.998;2024-03-07T00:55:09;95413.03;;;8.34;100.00
12624;BME280;6377;42.836;23.998;2024-03-07T00:57:36;95414.16;;;8.40;100.00
12624;BME280;6377;42.836;23.998;2024-03-07T01:00:03;95411.91;;;8.29;100.00
12624;BME280;6377;42.836;23.998;2024-03-07T01:02:37;95405.13;;;8.26;100.00
12624;BME280;6377;42.836;23.998;2024-03-07T01:05:07;95413.38;;;8.23;100.00
12624;BME280;6377;42.836;23.998;2024-03-07T01:07:35;95411.25;;;8.27;100.00
12624;BME280;6377;42.836;23.998;2024-03-07T01:10:03;95422.41;;;8.45;100.00
12624;BME280;6377;42.836;23.998;2024-03-07T01:12:31;95418.59;;;8.48;100.00
12624;BME280;6377;42.836;23.998;2024-03-07T01:15:00;95410.06;;;8.37;100.00
12624;BME280;6377;42.836;23.998;2024-03-07T01:17:29;95413.81;;;8.51;100.00
12624;BME280;6377;42.836;23.998;2024-03-07T01:19:57;95371.81;;;8.03;100.00
12624;BME280;6377;42.836;23.998;2024-03-07T01:22:26;95422.69;;;8.50;100.00
12624;BME280;6377;42.836;23.998;2024-03-07T01:24:53;95417.47;;;8.34;100.00
12624;BME280;6377;42.836;23.998;2024-03-07T01:27:20;95419.13;;;8.35;100.00
12624;BME280;6377;42.836;23.998;2024-03-07T01:29:50;95414.84;;;8.34;100.00
12624;BME280;6377;42.836;23.998;2024-03-07T01:32:19;95411.63;;;8.16;100.00
12624;BME280;6377;42.836;23.998;2024-03-07T01:34:46;95415.91;;;8.09;100.00
12624;BME280;6377;42.836;23.998;2024-03-07T01:37:13;95389.75;;;8.07;100.00
12624;BME280;6377;42.836;23.998;2024-03-07T01:39:42;95418.75;;;8.46;100.00
12624;BME280;6377;42.836;23.998;2024-03-07T01:42:09;95410.88;;;8.38;100.00
12624;BME280;6377;42.836;23.998;2024-03-07T01:44:36;95410.06;;;8.37;100.00
12624;BME280;6377;42.836;23.998;2024-03-07T01:47:03;95416.47;;;8.43;100.00
12624;BME280;6377;42.836;23.998;2024-03-07T01:49:31;95414.16;;;8.40;100.00
12624;BME280;6377;42.836;23.998;2024-03-07T01:51:58;95415.03;;;8.32;100.00
12624;BME280;6377;42.836;23.998;2024-03-07T01:54:26;95405.97;;;8.35;100.00
12624;BME280;6377;42.836;23.998;2024-03-07T01:56:56;95413.19;;;8.41;100.00
12624;BME280;6377;42.836;23.998;2024-03-07T01:59:24;95412.31;;;8.49;100.00
12624;BME280;6377;42.836;23.998;2024-03-07T02:01:52;95416.78;;;8.48;100.00
12624;BME280;6377;42.836;23.998;2024-03-07T02:04:19;95414.44;;;8.53;100.00
12624;BME280;6377;42.836;23.998;2024-03-07T02:06:47;95415.22;;;8.62;100.00
12624;BME280;6377;42.836;23.998;2024-03-07T02:09:14;95410.78;;;8.62;100.00
12624;BME280;6377;42.836;23.998;2024-03-07T02:11:41;95408.16;;;8.62;100.00
12624;BME280;6377;42.836;23.998;2024-03-07T02:14:10;95409.13;;;8.61;100.00
12624;BME280;6377;42.836;23.998;2024-03-07T02:16:38;95400.97;;;8.48;100.00
12624;BME280;6377;42.836;23.998;2024-03-07T02:19:05;95393.41;;;8.45;100.00
12624;BME280;6377;42.836;23.998;2024-03-07T02:21:35;95392.84;;;8.19;100.00
12624;BME280;6377;42.836;23.998;2024-03-07T02:24:02;95394.75;;;8.25;100.00
12624;BME280;6377;42.836;23.998;2024-03-07T02:26:29;95391.81;;;8.20;100.00
12624;BME280;6377;42.836;23.998;2024-03-07T02:28:56;95392.00;;;8.10;100.00
12624;BME280;6377;42.836;23.998;2024-03-07T02:31:24;95397.66;;;8.07;100.00
12624;BME280;6377;42.836;23.998;2024-03-07T02:34:00;95386.25;;;8.15;100.00
12624;BME280;6377;42.836;23.998;2024-03-07T02:36:28;95393.19;;;8.16;100.00
12624;BME280;6377;42.836;23.998;2024-03-07T02:38:56;95399.09;;;8.18;100.00
12624;BME280;6377;42.836;23.998;2024-03-07T02:41:24;95403.81;;;8.22;100.00
12624;BME280;6377;42.836;23.998;2024-03-07T02:43:51;95400.41;;;8.22;100.00
12624;BME280;6377;42.836;23.998;2024-03-07T02:46:18;95392.50;;;8.14;100.00
12624;BME280;6377;42.836;23.998;2024-03-07T02:48:46;95394.00;;;8.08;100.00
12624;BME280;6377;42.836;23.998;2024-03-07T02:51:13;95398.59;;;8.14;100.00
12624;BME280;6377;42.836;23.998;2024-03-07T02:53:40;95394.66;;;8.10;100.00
12624;BME280;6377;42.836;23.998;2024-03-07T02:56:09;95395.97;;;8.14;100.00
12624;BME280;6377;42.836;23.998;2024-03-07T02:58:37;95393.66;;;8.11;100.00
12624;BME280;6377;42.836;23.998;2024-03-07T03:01:05;95392.16;;;8.17;100.00
12624;BME280;6377;42.836;23.998;2024-03-07T03:03:32;95397.66;;;7.99;100.00
12624;BME280;6377;42.836;23.998;2024-03-07T03:05:59;95377.47;;;7.83;100.00
12624;BME280;6377;42.836;23.998;2024-03-07T03:08:26;95400.97;;;8.01;100.00
12624;BME280;6377;42.836;23.998;2024-03-07T03:10:55;95408.84;;;8.01;100.00
12624;BME280;6377;42.836;23.998;2024-03-07T03:13:25;95417.56;;;8.10;100.00
12624;BME280;6377;42.836;23.998;2024-03-07T03:15:53;95416.88;;;8.16;100.00
12624;BME280;6377;42.836;23.998;2024-03-07T03:18:21;95413.56;;;8.22;100.00
12624;BME280;6377;42.836;23.998;2024-03-07T03:20:49;95419.50;;;8.16;100.00
12624;BME280;6377;42.836;23.998;2024-03-07T03:23:16;95412.25;;;8.18;100.00
12624;BME280;6377;42.836;23.998;2024-03-07T03:25:43;95428.38;;;8.23;100.00
12624;BME280;6377;42.836;23.998;2024-03-07T03:28:11;95431.03;;;8.15;100.00
12624;BME280;6377;42.836;23.998;2024-03-07T03:30:40;95431.38;;;8.12;100.00
12624;BME280;6377;42.836;23.998;2024-03-07T03:33:08;95417.91;;;7.99;100.00
12624;BME280;6377;42.836;23.998;2024-03-07T03:35:36;95433.53;;;8.00;100.00
12624;BME280;6377;42.836;23.998;2024-03-07T03:38:03;95433.22;;;8.03;100.00
12624;BME280;6377;42.836;23.998;2024-03-07T03:40:31;95443.44;;;7.98;100.00
12624;BME280;6377;42.836;23.998;2024-03-07T03:42:58;95449.69;;;7.97;100.00
12624;BME280;6377;42.836;23.998;2024-03-07T03:45:25;95446.72;;;7.84;100.00
12624;BME280;6377;42.836;23.998;2024-03-07T03:47:54;95446.91;;;7.74;100.00
12624;BME280;6377;42.836;23.998;2024-03-07T03:50:21;95446.09;;;7.74;100.00
12624;BME280;6377;42.836;23.998;2024-03-07T03:52:50;95449.56;;;7.74;100.00
12624;BME280;6377;42.836;23.998;2024-03-07T03:55:17;95436.56;;;7.49;100.00
12624;BME280;6377;42.836;23.998;2024-03-07T03:57:45;95446.91;;;7.58;100.00
12624;BME280;6377;42.836;23.998;2024-03-07T04:00:14;95448.41;;;7.69;100.00
12624;BME280;6377;42.836;23.998;2024-03-07T04:02:43;95447.75;;;7.43;100.00
12624;BME280;6377;42.836;23.998;2024-03-07T04:05:16;95447.91;;;7.41;100.00
12624;BME280;6377;42.836;23.998;2024-03-07T04:07:43;95452.84;;;7.52;100.00
12624;BME280;6377;42.836;23.998;2024-03-07T04:10:11;95445.28;;;7.57;100.00
12624;BME280;6377;42.836;23.998;2024-03-07T04:12:39;95448.91;;;7.56;100.00
12624;BME280;6377;42.836;23.998;2024-03-07T04:15:08;95446.75;;;7.36;100.00
12624;BME280;6377;42.836;23.998;2024-03-07T04:17:35;95436.72;;;7.15;100.00
12624;BME280;6377;42.836;23.998;2024-03-07T04:20:04;95455.13;;;7.23;100.00
12624;BME280;6377;42.836;23.998;2024-03-07T04:22:33;95460.25;;;7.24;100.00
12624;BME280;6377;42.836;23.998;2024-03-07T04:25:01;95466.63;;;7.06;100.00
12624;BME280;6377;42.836;23.998;2024-03-07T04:27:28;95474.63;;;6.80;100.00
12624;BME280;6377;42.836;23.998;2024-03-07T04:29:56;95468.97;;;6.67;100.00
12624;BME280;6377;42.836;23.998;2024-03-07T04:32:23;95464.88;;;6.64;100.00
12624;BME280;6377;42.836;23.998;2024-03-07T04:34:50;95465.03;;;6.63;100.00
12624;BME280;6377;42.836;23.998;2024-03-07T04:37:17;95463.38;;;6.62;100.00
12624;BME280;6377;42.836;23.998;2024-03-07T04:39:45;95468.44;;;6.55;100.00
12624;BME280;6377;42.836;23.998;2024-03-07T04:42:13;95450.22;;;6.54;100.00
12624;BME280;6377;42.836;23.998;2024-03-07T04:44:40;95464.13;;;6.46;100.00
12624;BME280;6377;42.836;23.998;2024-03-07T04:47:07;95460.84;;;6.44;100.00
12624;BME280;6377;42.836;23.998;2024-03-07T04:49:34;95453.09;;;6.35;100.00
12624;BME280;6377;42.836;23.998;2024-03-07T04:52:02;95455.38;;;6.30;100.00
12624;BME280;6377;42.836;23.998;2024-03-07T04:54:30;95469.72;;;6.43;100.00
12624;BME280;6377;42.836;23.998;2024-03-07T04:57:01;95468.31;;;6.57;100.00
12624;BME280;6377;42.836;23.998;2024-03-07T04:59:28;95468.31;;;6.65;100.00
12624;BME280;6377;42.836;23.998;2024-03-07T05:01:56;95473.41;;;6.66;100.00
12624;BME280;6377;42.836;23.998;2024-03-07T05:04:23;95465.25;;;6.78;100.00
12624;BME280;6377;42.836;23.998;2024-03-07T05:06:55;95457.69;;;6.83;100.00
12624;BME280;6377;42.836;23.998;2024-03-07T05:09:23;95441.09;;;6.82;100.00
12624;BME280;6377;42.836;23.998;2024-03-07T05:11:51;95423.03;;;6.87;100.00
12624;BME280;6377;42.836;23.998;2024-03-07T05:14:20;95443.78;;;6.98;100.00
12624;BME280;6377;42.836;23.998;2024-03-07T05:16:47;95437.38;;;7.01;100.00
12624;BME280;6377;42.836;23.998;2024-03-07T05:19:30;95427.81;;;6.92;100.00
12624;BME280;6377;42.836;23.998;2024-03-07T05:21:57;95444.75;;;7.05;100.00
12624;BME280;6377;42.836;23.998;2024-03-07T05:24:25;95438.53;;;7.14;100.00
12624;BME280;6377;42.836;23.998;2024-03-07T05:26:52;95407.75;;;6.99;100.00
12624;BME280;6377;42.836;23.998;2024-03-07T05:29:21;95433.25;;;7.06;100.00
12624;BME280;6377;42.836;23.998;2024-03-07T05:31:48;95429.81;;;7.14;100.00
12624;BME280;6377;42.836;23.998;2024-03-07T05:34:15;95445.91;;;7.03;100.00
12624;BME280;6377;42.836;23.998;2024-03-07T05:36:44;95448.88;;;7.08;100.00
12624;BME280;6377;42.836;23.998;2024-03-07T05:39:13;95445.25;;;7.17;100.00
12624;BME280;6377;42.836;23.998;2024-03-07T05:41:40;95451.53;;;7.16;100.00
12624;BME280;6377;42.836;23.998;2024-03-07T05:44:08;95434.22;;;6.97;100.00
12624;BME280;6377;42.836;23.998;2024-03-07T05:46:37;95431.44;;;6.99;100.00
12624;BME280;6377;42.836;23.998;2024-03-07T05:49:07;95453.84;;;7.19;100.00
12624;BME280;6377;42.836;23.998;2024-03-07T05:51:34;95447.09;;;7.32;100.00
12624;BME280;6377;42.836;23.998;2024-03-07T05:54:02;95433.63;;;7.36;100.00
12624;BME280;6377;42.836;23.998;2024-03-07T05:56:32;95453.34;;;7.48;100.00
12624;BME280;6377;42.836;23.998;2024-03-07T05:59:01;95458.13;;;7.44;100.00
12624;BME280;6377;42.836;23.998;2024-03-07T06:01:30;95448.91;;;7.32;100.00
12624;BME280;6377;42.836;23.998;2024-03-07T06:04:01;95461.56;;;7.37;100.00
12624;BME280;6377;42.836;23.998;2024-03-07T06:06:31;95467.63;;;7.29;100.00
12624;BME280;6377;42.836;23.998;2024-03-07T06:08:58;95461.88;;;7.25;100.00
12624;BME280;6377;42.836;23.998;2024-03-07T06:11:25;95466.47;;;7.23;100.00
12624;BME280;6377;42.836;23.998;2024-03-07T06:13:52;95467.47;;;7.22;100.00
12624;BME280;6377;42.836;23.998;2024-03-07T06:16:19;95463.84;;;7.23;100.00
12624;BME280;6377;42.836;23.998;2024-03-07T06:18:46;95470.44;;;7.27;100.00
12624;BME280;6377;42.836;23.998;2024-03-07T06:21:15;95464.34;;;7.35;100.00
12624;BME280;6377;42.836;23.998;2024-03-07T06:23:42;95462.88;;;7.49;100.00
12624;BME280;6377;42.836;23.998;2024-03-07T06:26:13;95470.59;;;7.58;100.00
12624;BME280;6377;42.836;23.998;2024-03-07T06:28:42;95470.25;;;7.69;100.00
12624;BME280;6377;42.836;23.998;2024-03-07T06:31:11;95479.66;;;7.80;100.00
12624;BME280;6377;42.836;23.998;2024-03-07T06:33:38;95474.69;;;7.93;100.00
12624;BME280;6377;42.836;23.998;2024-03-07T06:36:05;95470.72;;;8.05;100.00
12624;BME280;6377;42.836;23.998;2024-03-07T06:38:33;95464.97;;;8.10;100.00
12624;BME280;6377;42.836;23.998;2024-03-07T06:41:00;95468.25;;;8.12;100.00
12624;BME280;6377;42.836;23.998;2024-03-07T06:43:27;95462.00;;;8.05;100.00
12624;BME280;6377;42.836;23.998;2024-03-07T06:45:55;95472.34;;;8.14;100.00
12624;BME280;6377;42.836;23.998;2024-03-07T06:48:22;95471.38;;;8.15;100.00
12624;BME280;6377;42.836;23.998;2024-03-07T06:50:49;95475.66;;;8.08;100.00
12624;BME280;6377;42.836;23.998;2024-03-07T06:53:18;95468.09;;;8.05;100.00
12624;BME280;6377;42.836;23.998;2024-03-07T06:55:47;95472.03;;;8.09;100.00
12624;BME280;6377;42.836;23.998;2024-03-07T06:58:14;95468.41;;;8.10;100.00
12624;BME280;6377;42.836;23.998;2024-03-07T07:00:43;95464.75;;;8.19;100.00
12624;BME280;6377;42.836;23.998;2024-03-07T07:03:10;95470.19;;;8.34;100.00
12624;BME280;6377;42.836;23.998;2024-03-07T07:05:39;95466.19;;;8.46;100.00
12624;BME280;6377;42.836;23.998;2024-03-07T07:08:06;95469.97;;;8.52;100.00
12624;BME280;6377;42.836;23.998;2024-03-07T07:10:34;95470.28;;;8.49;100.00
12624;BME280;6377;42.836;23.998;2024-03-07T07:13:03;95466.69;;;8.50;100.00
12624;BME280;6377;42.836;23.998;2024-03-07T07:15:31;95470.97;;;8.42;100.00
12624;BME280;6377;42.836;23.998;2024-03-07T07:17:58;95456.50;;;8.38;100.00
12624;BME280;6377;42.836;23.998;2024-03-07T07:20:27;95468.94;;;8.61;100.00
12624;BME280;6377;42.836;23.998;2024-03-07T07:22:54;95475.22;;;8.60;100.00
12624;BME280;6377;42.836;23.998;2024-03-07T07:25:23;95465.81;;;8.65;100.00
12624;BME280;6377;42.836;23.998;2024-03-07T07:27:52;95466.38;;;8.83;100.00
12624;BME280;6377;42.836;23.998;2024-03-07T07:30:22;95468.16;;;8.91;100.00
12624;BME280;6377;42.836;23.998;2024-03-07T07:32:53;95476.13;;;9.06;100.00
12624;BME280;6377;42.836;23.998;2024-03-07T07:35:21;95481.84;;;9.17;100.00
12624;BME280;6377;42.836;23.998;2024-03-07T07:37:49;95481.91;;;9.32;100.00
12624;BME280;6377;42.836;23.998;2024-03-07T07:40:18;95484.13;;;9.43;100.00
12624;BME280;6377;42.836;23.998;2024-03-07T07:42:47;95490.72;;;9.47;100.00
12624;BME280;6377;42.836;23.998;2024-03-07T07:45:15;95484.97;;;9.43;100.00
12624;BME280;6377;42.836;23.998;2024-03-07T07:47:44;95472.53;;;9.29;100.00
12624;BME280;6377;42.836;23.998;2024-03-07T07:50:13;95493.94;;;9.34;100.00
12624;BME280;6377;42.836;23.998;2024-03-07T07:52:43;95493.47;;;9.31;100.00
12624;BME280;6377;42.836;23.998;2024-03-07T07:55:11;95489.22;;;9.22;100.00
12624;BME280;6377;42.836;23.998;2024-03-07T07:57:42;95490.81;;;9.31;100.00
12624;BME280;6377;42.836;23.998;2024-03-07T08:00:11;95489.78;;;9.40;100.00
12624;BME280;6377;42.836;23.998;2024-03-07T08:02:53;95491.44;;;9.41;100.00
12624;BME280;6377;42.836;23.998;2024-03-07T08:05:21;95491.00;;;9.52;100.00
12624;BME280;6377;42.836;23.998;2024-03-07T08:07:49;95490.59;;;9.63;100.00
12624;BME280;6377;42.836;23.998;2024-03-07T08:10:18;95491.53;;;9.70;100.00
12624;BME280;6377;42.836;23.998;2024-03-07T08:12:46;95490.94;;;9.60;100.00
12624;BME280;6377;42.836;23.998;2024-03-07T08:15:13;95485.84;;;9.58;100.00
12624;BME280;6377;42.836;23.998;2024-03-07T08:17:41;95495.75;;;9.79;100.00
12624;BME280;6377;42.836;23.998;2024-03-07T08:20:12;95491.31;;;9.80;100.00
12624;BME280;6377;42.836;23.998;2024-03-07T08:22:40;95487.56;;;9.74;100.00
12624;BME280;6377;42.836;23.998;2024-03-07T08:25:09;95478.50;;;9.91;100.00
12624;BME280;6377;42.836;23.998;2024-03-07T08:27:37;95471.47;;;9.98;100.00
12624;BME280;6377;42.836;23.998;2024-03-07T08:30:05;95482.94;;;10.28;100.00
12624;BME280;6377;42.836;23.998;2024-03-07T08:32:33;95481.03;;;10.51;100.00
12624;BME280;6377;42.836;23.998;2024-03-07T08:35:03;95501.19;;;10.52;100.00
12624;BME280;6377;42.836;23.998;2024-03-07T08:37:35;95495.16;;;10.29;100.00
12624;BME280;6377;42.836;23.998;2024-03-07T08:40:03;95502.00;;;10.24;100.00
12624;BME280;6377;42.836;23.998;2024-03-07T08:42:32;95499.47;;;10.30;100.00
12624;BME280;6377;42.836;23.998;2024-03-07T08:45:00;95502.53;;;10.34;99.42
12624;BME280;6377;42.836;23.998;2024-03-07T08:47:29;95506.91;;;10.04;100.00
12624;BME280;6377;42.836;23.998;2024-03-07T08:49:56;95494.66;;;9.74;97.71
12624;BME280;6377;42.836;23.998;2024-03-07T08:52:23;95510.56;;;9.66;100.00
12624;BME280;6377;42.836;23.998;2024-03-07T08:54:53;95506.19;;;9.73;100.00
12624;BME280;6377;42.836;23.998;2024-03-07T08:57:20;95500.75;;;9.74;98.65
12624;BME280;6377;42.836;23.998;2024-03-07T08:59:48;95507.16;;;9.80;100.00
12624;BME280;6377;42.836;23.998;2024-03-07T09:02:15;95506.09;;;9.66;93.23
12624;BME280;6377;42.836;23.998;2024-03-07T09:04:42;95497.44;;;9.72;95.07
12624;BME280;6377;42.836;23.998;2024-03-07T09:07:09;95514.38;;;9.86;93.24
12624;BME280;6377;42.836;23.998;2024-03-07T09:09:36;95512.47;;;9.94;87.84
12624;BME280;6377;42.836;23.998;2024-03-07T09:12:05;95500.91;;;10.10;92.62
12624;BME280;6377;42.836;23.998;2024-03-07T09:14:33;95510.91;;;10.23;85.10
12624;BME280;6377;42.836;23.998;2024-03-07T09:17:01;95507.03;;;10.10;85.62
12624;BME280;6377;42.836;23.998;2024-03-07T09:19:30;95512.50;;;10.09;82.03
12624;BME280;6377;42.836;23.998;2024-03-07T09:21:57;95491.53;;;10.07;83.26
12624;BME280;6377;42.836;23.998;2024-03-07T09:24:25;95502.41;;;10.12;83.74
12624;BME280;6377;42.836;23.998;2024-03-07T09:26:53;95502.09;;;10.16;90.39
12624;BME280;6377;42.836;23.998;2024-03-07T09:29:23;95507.56;;;10.29;86.95
12624;BME280;6377;42.836;23.998;2024-03-07T09:31:50;95497.78;;;10.15;82.34
12624;BME280;6377;42.836;23.998;2024-03-07T09:34:19;95523.91;;;10.09;83.82
12624;BME280;6377;42.836;23.998;2024-03-07T09:36:47;95525.47;;;10.19;82.05
12624;BME280;6377;42.836;23.998;2024-03-07T09:39:14;95519.47;;;10.25;81.21
12624;BME280;6377;42.836;23.998;2024-03-07T09:41:42;95526.69;;;10.31;80.40
12624;BME280;6377;42.836;23.998;2024-03-07T09:44:10;95520.31;;;10.40;80.54
12624;BME280;6377;42.836;23.998;2024-03-07T09:46:40;95528.25;;;10.40;78.57
12624;BME280;6377;42.836;23.998;2024-03-07T09:49:10;95530.66;;;10.49;76.70
12624;BME280;6377;42.836;23.998;2024-03-07T09:51:43;95517.31;;;10.57;78.70
12624;BME280;6377;42.836;23.998;2024-03-07T09:54:10;95523.28;;;10.89;76.42
12624;BME280;6377;42.836;23.998;2024-03-07T09:56:38;95522.06;;;11.06;73.16
12624;BME280;6377;42.836;23.998;2024-03-07T09:59:11;95538.47;;;11.16;70.13
12624;BME280;6377;42.836;23.998;2024-03-07T10:01:41;95546.78;;;11.13;70.28
12624;BME280;6377;42.836;23.998;2024-03-07T10:04:13;95498.88;;;11.08;71.04
12624;BME280;6377;42.836;23.998;2024-03-07T10:06:42;95524.28;;;11.38;67.57
12624;BME280;6377;42.836;23.998;2024-03-07T10:09:11;95536.59;;;11.67;69.63
12624;BME280;6377;42.836;23.998;2024-03-07T10:11:39;95533.72;;;11.83;65.16
12624;BME280;6377;42.836;23.998;2024-03-07T10:14:07;95534.63;;;11.90;63.53
12624;BME280;6377;42.836;23.998;2024-03-07T10:16:34;95523.03;;;12.19;64.73
12624;BME280;6377;42.836;23.998;2024-03-07T10:19:05;95527.13;;;12.21;61.07
12624;BME280;6377;42.836;23.998;2024-03-07T10:21:34;95524.91;;;12.46;59.60
12624;BME280;6377;42.836;23.998;2024-03-07T10:24:05;95518.72;;;12.67;58.37
12624;BME280;6377;42.836;23.998;2024-03-07T10:26:34;95525.97;;;12.86;58.52
12624;BME280;6377;42.836;23.998;2024-03-07T10:29:04;95515.72;;;13.11;57.85
12624;BME280;6377;42.836;23.998;2024-03-07T10:31:31;95501.44;;;13.12;56.10
12624;BME280;6377;42.836;23.998;2024-03-07T10:33:59;95517.22;;;13.33;53.24
12624;BME280;6377;42.836;23.998;2024-03-07T10:36:29;95508.88;;;13.42;55.70
12624;BME280;6377;42.836;23.998;2024-03-07T10:38:57;95515.88;;;13.57;56.16
12624;BME280;6377;42.836;23.998;2024-03-07T10:41:44;95516.31;;;13.67;53.49
12624;BME280;6377;42.836;23.998;2024-03-07T10:44:11;95518.94;;;13.60;52.04
12624;BME280;6377;42.836;23.998;2024-03-07T10:46:43;95510.81;;;13.81;51.87
12624;BME280;6377;42.836;23.998;2024-03-07T10:49:15;95516.19;;;14.08;50.67
12624;BME280;6377;42.836;23.998;2024-03-07T10:51:46;95485.66;;;13.64;48.49
12624;BME280;6377;42.836;23.998;2024-03-07T10:54:27;95508.56;;;13.78;50.71
12624;BME280;6377;42.836;23.998;2024-03-07T10:57:06;95515.50;;;13.66;50.19
12624;BME280;6377;42.836;23.998;2024-03-07T10:59:43;95489.06;;;13.45;49.50
12624;BME280;6377;42.836;23.998;2024-03-07T11:02:20;95483.00;;;13.64;49.90
12624;BME280;6377;42.836;23.998;2024-03-07T11:04:52;95503.47;;;13.90;50.04
12624;BME280;6377;42.836;23.998;2024-03-07T11:07:23;95502.19;;;13.60;49.57
12624;BME280;6377;42.836;23.998;2024-03-07T11:09:51;95497.94;;;13.11;50.20
12624;BME280;6377;42.836;23.998;2024-03-07T11:12:22;95501.84;;;12.81;51.16
12624;BME280;6377;42.836;23.998;2024-03-07T11:14:50;95502.41;;;12.70;51.35
12624;BME280;6377;42.836;23.998;2024-03-07T11:17:20;95481.59;;;12.73;52.43
12624;BME280;6377;42.836;23.998;2024-03-07T11:19:47;95505.09;;;12.76;52.33
12624;BME280;6377;42.836;23.998;2024-03-07T11:22:29;95496.22;;;12.56;51.72
12624;BME280;6377;42.836;23.998;2024-03-07T11:25:01;95505.84;;;12.36;52.42
12624;BME280;6377;42.836;23.998;2024-03-07T11:27:32;95498.44;;;12.53;53.32
12624;BME280;6377;42.836;23.998;2024-03-07T11:30:05;95496.81;;;12.58;54.16
12624;BME280;6377;42.836;23.998;2024-03-07T11:32:34;95503.84;;;12.45;54.11
12624;BME280;6377;42.836;23.998;2024-03-07T11:35:12;95505.22;;;12.34;54.22
12624;BME280;6377;42.836;23.998;2024-03-07T11:37:42;95511.31;;;12.07;55.87
12624;BME280;6377;42.836;23.998;2024-03-07T11:43:03;95514.78;;;11.65;58.05
12624;BME280;6377;42.836;23.998;2024-03-07T11:45:32;95516.00;;;11.48;59.66
12624;BME280;6377;42.836;23.998;2024-03-07T11:48:05;95513.34;;;11.27;60.46
12624;BME280;6377;42.836;23.998;2024-03-07T11:50:35;95517.13;;;11.17;60.00
12624;BME280;6377;42.836;23.998;2024-03-07T11:53:05;95519.88;;;11.09;63.74
12624;BME280;6377;42.836;23.998;2024-03-07T11:55:33;95519.41;;;11.06;64.38
12624;BME280;6377;42.836;23.998;2024-03-07T11:58:07;95516.31;;;11.02;66.03
12624;BME280;6377;42.836;23.998;2024-03-07T12:00:38;95515.41;;;10.95;66.82
12624;BME280;6377;42.836;23.998;2024-03-07T12:03:08;95520.69;;;10.81;67.25
12624;BME280;6377;42.836;23.998;2024-03-07T12:05:39;95521.00;;;10.71;65.09
12624;BME280;6377;42.836;23.998;2024-03-07T12:08:08;95524.81;;;10.68;66.81
12624;BME280;6377;42.836;23.998;2024-03-07T12:10:36;95522.97;;;10.69;67.40
12624;BME280;6377;42.836;23.998;2024-03-07T12:13:05;95523.91;;;10.61;68.89
12624;BME280;6377;42.836;23.998;2024-03-07T12:15:33;95515.97;;;10.61;68.17
12624;BME280;6377;42.836;23.998;2024-03-07T12:18:02;95508.91;;;10.39;70.19
12624;BME280;6377;42.836;23.998;2024-03-07T12:20:36;95512.41;;;10.54;72.71
12624;BME280;6377;42.836;23.998;2024-03-07T12:23:04;95512.97;;;10.50;67.58
12624;BME280;6377;42.836;23.998;2024-03-07T12:25:35;95507.84;;;10.63;70.78
12624;BME280;6377;42.836;23.998;2024-03-07T12:28:04;95508.03;;;10.76;70.30
12624;BME280;6377;42.836;23.998;2024-03-07T12:30:47;95502.13;;;10.74;69.51
12624;BME280;6377;42.836;23.998;2024-03-07T12:33:17;95506.84;;;10.64;68.84
12624;BME280;6377;42.836;23.998;2024-03-07T12:35:45;95493.38;;;10.59;71.13
12624;BME280;6377;42.836;23.998;2024-03-07T12:38:13;95503.38;;;10.49;71.27
12624;BME280;6377;42.836;23.998;2024-03-07T12:40:44;95501.56;;;10.49;71.47
12624;BME280;6377;42.836;23.998;2024-03-07T12:43:14;95503.56;;;10.47;72.30
12624;BME280;6377;42.836;23.998;2024-03-07T12:45:44;95494.19;;;10.45;73.89
12624;BME280;6377;42.836;23.998;2024-03-07T12:48:11;95497.47;;;10.47;72.64
12624;BME280;6377;42.836;23.998;2024-03-07T12:50:40;95497.94;;;10.50;70.34
12624;BME280;6377;42.836;23.998;2024-03-07T12:53:07;95492.91;;;10.55;73.42
12624;BME280;6377;42.836;23.998;2024-03-07T12:55:38;95497.09;;;10.50;69.75
12624;BME280;6377;42.836;23.998;2024-03-07T12:58:11;95463.44;;;10.15;71.49
12624;BME280;6377;42.836;23.998;2024-03-07T13:00:39;95498.06;;;10.34;71.99
12624;BME280;6377;42.836;23.998;2024-03-07T13:03:07;95480.66;;;10.25;71.67
12624;BME280;6377;42.836;23.998;2024-03-07T13:05:35;95493.81;;;10.33;72.88
12624;BME280;6377;42.836;23.998;2024-03-07T13:08:06;95477.50;;;10.30;72.61
12624;BME280;6377;42.836;23.998;2024-03-07T13:10:37;95494.09;;;10.38;72.52